createdAt,value
2024-04-09T00:00:52.282Z,4.46
2024-04-09T00:01:52.190Z,4.18
2024-04-09T00:02:52.323Z,4.59
2024-04-09T00:03:52.428Z,4.48
2024-04-09T00:04:52.388Z,4.87
2024-04-09T00:05:52.523Z,4.47
2024-04-09T00:06:52.474Z,3.99
2024-04-09T00:07:52.554Z,3.96
2024-04-09T00:08:52.586Z,4.20
2024-04-09T00:09:52.614Z,4.47
2024-04-09T00:10:52.670Z,4.85
2024-04-09T00:11:52.770Z,4.25
2024-04-09T00:12:52.852Z,4.25
2024-04-09T00:13:52.901Z,4.28
2024-04-09T00:14:52.968Z,4.35
2024-04-09T00:15:53.053Z,3.71
2024-04-09T00:16:53.067Z,4.54
2024-04-09T00:17:53.279Z,4.43
2024-04-09T00:18:53.339Z,4.32
2024-04-09T00:19:53.287Z,4.16
2024-04-09T00:20:53.346Z,3.86
2024-04-09T00:21:53.437Z,4.25
2024-04-09T00:22:53.481Z,4.32
2024-04-09T00:23:53.617Z,3.90
2024-04-09T00:24:53.538Z,3.92
2024-04-09T00:25:53.655Z,3.51
2024-04-09T00:26:53.795Z,3.99
2024-04-09T00:27:53.774Z,4.22
2024-04-09T00:28:53.854Z,3.88
2024-04-09T00:29:53.904Z,4.57
2024-04-09T00:30:53.991Z,4.31
2024-04-09T00:31:54.109Z,4.28
2024-04-09T00:32:54.218Z,4.50
2024-04-09T00:33:54.417Z,4.08
2024-04-09T00:34:54.260Z,4.07
2024-04-09T00:35:54.400Z,4.44
2024-04-09T00:36:54.369Z,4.26
2024-04-09T00:37:54.455Z,4.49
2024-04-09T00:38:54.565Z,4.20
2024-04-09T00:39:54.572Z,3.92
2024-04-09T00:40:54.640Z,3.92
2024-04-09T00:41:54.727Z,3.71
2024-04-09T00:42:54.706Z,3.98
2024-04-09T00:43:54.790Z,4.27
2024-04-09T00:44:54.852Z,3.76
2024-04-09T00:45:54.922Z,4.14
2024-04-09T00:46:54.949Z,4.16
2024-04-09T00:47:55.151Z,4.81
2024-04-09T00:48:55.113Z,3.75
2024-04-09T00:49:55.033Z,3.96
2024-04-09T00:50:55.091Z,4.07
2024-04-09T00:51:55.117Z,3.73
2024-04-09T00:52:55.156Z,3.83
2024-04-09T00:53:55.209Z,4.37
2024-04-09T00:54:55.264Z,3.69
2024-04-09T00:55:55.315Z,4.25
2024-04-09T00:56:55.394Z,3.93
2024-04-09T00:57:55.398Z,3.96
2024-04-09T00:58:55.446Z,3.94
2024-04-09T00:59:55.545Z,3.67
2024-04-09T01:00:55.627Z,4.00
2024-04-09T01:01:55.641Z,3.65
2024-04-09T01:02:55.913Z,4.01
2024-04-09T01:03:55.918Z,3.63
2024-04-09T01:04:55.871Z,3.96
2024-04-09T01:05:55.883Z,4.46
2024-04-09T01:06:55.882Z,3.74
2024-04-09T01:07:55.912Z,4.10
2024-04-09T01:08:56.026Z,3.48
2024-04-09T01:09:56.007Z,3.84
2024-04-09T01:10:56.254Z,3.93
2024-04-09T01:11:56.150Z,3.40
2024-04-09T01:12:56.195Z,3.55
2024-04-09T01:13:56.232Z,3.59
2024-04-09T01:14:56.300Z,4.25
2024-04-09T01:15:56.347Z,3.67
2024-04-09T01:16:56.486Z,3.70
2024-04-09T01:17:56.530Z,3.86
2024-04-09T01:18:56.546Z,4.72
2024-04-09T01:19:56.505Z,3.21
2024-04-09T01:20:56.658Z,3.84
2024-04-09T01:21:56.618Z,3.65
2024-04-09T01:22:56.647Z,3.79
2024-04-09T01:23:56.718Z,3.95
2024-04-09T01:24:56.718Z,3.64
2024-04-09T01:25:56.763Z,3.86
2024-04-09T01:26:56.889Z,4.20
2024-04-09T01:27:56.860Z,3.58
2024-04-09T01:28:56.882Z,3.07
2024-04-09T01:29:56.990Z,3.75
2024-04-09T01:30:57.082Z,3.53
2024-04-09T01:31:57.085Z,3.69
2024-04-09T01:32:57.198Z,3.76
2024-04-09T01:33:57.250Z,4.31
2024-04-09T01:34:57.187Z,4.10
2024-04-09T01:35:57.292Z,3.44
2024-04-09T01:36:57.243Z,3.71
2024-04-09T01:37:57.309Z,4.01
2024-04-09T01:38:57.494Z,4.79
2024-04-09T01:39:57.435Z,3.45
2024-04-09T01:40:57.526Z,3.92
2024-04-09T01:41:57.619Z,3.95
2024-04-09T01:42:57.599Z,4.15
2024-04-09T01:43:57.713Z,3.36
2024-04-09T01:44:57.706Z,3.57
2024-04-09T01:45:57.784Z,3.68
2024-04-09T01:46:57.843Z,3.47
2024-04-09T01:47:58.177Z,3.61
2024-04-09T01:48:57.975Z,3.83
2024-04-09T01:49:57.943Z,3.54
2024-04-09T01:50:58.034Z,3.27
2024-04-09T01:51:58.013Z,3.62
2024-04-09T01:52:58.067Z,3.67
2024-04-09T01:53:58.188Z,3.59
2024-04-09T01:54:58.138Z,3.40
2024-04-09T01:55:58.204Z,3.69
2024-04-09T01:56:58.317Z,3.61
2024-04-09T01:57:58.399Z,3.81
2024-04-09T01:58:58.370Z,3.68
2024-04-09T01:59:58.501Z,4.03
2024-04-09T02:00:58.509Z,3.39
2024-04-09T02:01:58.499Z,3.94
2024-04-09T02:02:58.728Z,3.74
2024-04-09T02:03:58.734Z,3.84
2024-04-09T02:04:58.772Z,3.08
2024-04-09T02:05:58.817Z,3.53
2024-04-09T02:06:58.803Z,3.63
2024-04-09T02:07:58.862Z,3.49
2024-04-09T02:08:58.986Z,3.35
2024-04-09T02:09:58.909Z,3.66
2024-04-09T02:10:59.002Z,3.57
2024-04-09T02:11:59.149Z,4.04
2024-04-09T02:12:59.100Z,3.34
2024-04-09T02:13:59.222Z,3.32
2024-04-09T02:14:59.317Z,3.83
2024-04-09T02:15:59.322Z,4.08
2024-04-09T02:16:59.502Z,3.43
2024-04-09T02:17:59.601Z,3.59
2024-04-09T02:18:59.633Z,3.48
2024-04-09T02:19:59.670Z,3.63
2024-04-09T02:20:59.811Z,3.38
2024-04-09T02:21:59.782Z,3.24
2024-04-09T02:22:59.886Z,3.23
2024-04-09T02:23:59.941Z,4.19
2024-04-09T02:25:00.013Z,3.98
2024-04-09T02:26:00.099Z,4.30
2024-04-09T02:27:00.186Z,4.06
2024-04-09T02:28:00.257Z,4.14
2024-04-09T02:29:00.257Z,4.63
2024-04-09T02:30:00.413Z,5.10
2024-04-09T02:31:00.398Z,4.48
2024-04-09T02:32:00.635Z,4.66
2024-04-09T02:33:00.693Z,4.21
2024-04-09T02:34:00.636Z,4.24
2024-04-09T02:35:00.634Z,5.03
2024-04-09T02:36:00.811Z,5.89
2024-04-09T02:37:00.787Z,5.57
2024-04-09T02:38:00.866Z,4.84
2024-04-09T02:39:00.976Z,4.96
2024-04-09T02:40:00.969Z,4.60
2024-04-09T02:41:01.077Z,4.91
2024-04-09T02:42:01.153Z,4.66
2024-04-09T02:43:01.203Z,4.53
2024-04-09T02:44:01.299Z,5.63
2024-04-09T02:45:01.432Z,4.28
2024-04-09T02:46:01.474Z,3.74
2024-04-09T02:47:01.668Z,3.57
2024-04-09T02:48:01.672Z,4.50
2024-04-09T02:49:01.675Z,4.40
2024-04-09T02:50:01.762Z,4.74
2024-04-09T02:51:01.873Z,4.61
2024-04-09T02:52:01.902Z,4.58
2024-04-09T02:53:01.886Z,4.76
2024-04-09T02:54:01.980Z,4.86
2024-04-09T02:55:02.051Z,5.38
2024-04-09T02:56:02.209Z,3.32
2024-04-09T02:57:02.148Z,4.05
2024-04-09T02:58:02.220Z,3.70
2024-04-09T02:59:02.279Z,3.57
2024-04-09T03:00:02.431Z,3.97
2024-04-09T03:01:02.702Z,4.04
2024-04-09T03:02:02.983Z,3.97
2024-04-09T03:03:02.674Z,3.58
2024-04-09T03:04:02.981Z,3.61
2024-04-09T03:05:02.881Z,3.75
2024-04-09T03:06:02.955Z,3.60
2024-04-09T03:07:02.950Z,3.52
2024-04-09T03:08:02.981Z,3.71
2024-04-09T03:09:03.100Z,3.55
2024-04-09T03:10:03.123Z,3.04
2024-04-09T03:11:03.266Z,3.81
2024-04-09T03:12:03.690Z,3.10
2024-04-09T03:13:03.319Z,3.57
2024-04-09T03:14:03.329Z,3.57
2024-04-09T03:15:03.397Z,3.31
2024-04-09T03:16:03.466Z,3.86
2024-04-09T03:17:03.494Z,3.57
2024-04-09T03:18:03.678Z,3.41
2024-04-09T03:19:03.578Z,3.40
2024-04-09T03:20:03.601Z,3.64
2024-04-09T03:21:03.733Z,2.97
2024-04-09T03:22:03.795Z,3.42
2024-04-09T03:23:03.843Z,3.43
2024-04-09T03:24:03.969Z,3.72
2024-04-09T03:25:03.946Z,3.95
2024-04-09T03:26:04.017Z,3.51
2024-04-09T03:27:04.089Z,3.54
2024-04-09T03:28:04.143Z,2.99
2024-04-09T03:29:04.484Z,3.40
2024-04-09T03:30:04.210Z,3.03
2024-04-09T03:31:04.345Z,3.71
2024-04-09T03:32:04.399Z,2.92
2024-04-09T03:33:04.597Z,2.99
2024-04-09T03:34:04.668Z,3.35
2024-04-09T03:35:04.560Z,3.10
2024-04-09T03:36:04.936Z,3.40
2024-04-09T03:37:05.108Z,2.93
2024-04-09T03:38:04.756Z,3.19
2024-04-09T03:39:04.889Z,3.10
2024-04-09T03:40:04.940Z,3.75
2024-04-09T03:41:04.917Z,3.15
2024-04-09T03:42:05.183Z,3.17
2024-04-09T03:43:04.975Z,3.31
2024-04-09T03:44:05.024Z,3.67
2024-04-09T03:45:05.156Z,3.09
2024-04-09T03:46:05.124Z,2.86
2024-04-09T03:47:05.219Z,2.89
2024-04-09T03:48:05.359Z,3.09
2024-04-09T03:49:05.573Z,3.53
2024-04-09T03:50:05.427Z,3.31
2024-04-09T03:51:05.538Z,3.42
2024-04-09T03:52:05.628Z,3.54
2024-04-09T03:53:05.680Z,3.56
2024-04-09T03:54:05.827Z,4.69
2024-04-09T03:55:05.872Z,3.89
2024-04-09T03:56:05.925Z,4.17
2024-04-09T03:57:06.083Z,4.16
2024-04-09T03:58:06.136Z,4.56
2024-04-09T03:59:06.179Z,3.37
2024-04-09T04:00:06.239Z,4.68
2024-04-09T04:01:09.085Z,4.61
2024-04-09T04:02:06.395Z,3.67
2024-04-09T04:03:06.474Z,4.81
2024-04-09T04:04:06.585Z,5.26
2024-04-09T04:05:06.535Z,4.24
2024-04-09T04:06:06.685Z,4.12
2024-04-09T04:07:06.733Z,3.39
2024-04-09T04:08:06.755Z,3.13
2024-04-09T04:09:06.840Z,3.63
2024-04-09T04:10:09.343Z,4.56
2024-04-09T04:11:07.039Z,4.49
2024-04-09T04:12:07.027Z,5.64
2024-04-09T04:13:07.020Z,5.91
2024-04-09T04:14:07.120Z,5.14
2024-04-09T04:15:07.256Z,4.85
2024-04-09T04:16:07.340Z,5.15
2024-04-09T04:17:07.435Z,4.42
2024-04-09T04:18:07.590Z,4.49
2024-04-09T04:19:07.698Z,4.57
2024-04-09T04:20:07.602Z,3.82
2024-04-09T04:21:11.480Z,4.84
2024-04-09T04:22:07.745Z,4.15
2024-04-09T04:23:07.858Z,4.86
2024-04-09T04:24:07.933Z,4.55
2024-04-09T04:25:07.961Z,4.73
2024-04-09T04:26:08.130Z,5.05
2024-04-09T04:27:08.317Z,5.29
2024-04-09T04:28:08.215Z,4.77
2024-04-09T04:29:08.296Z,5.49
2024-04-09T04:30:08.404Z,5.37
2024-04-09T04:31:08.517Z,5.45
2024-04-09T04:32:08.565Z,5.06
2024-04-09T04:33:08.695Z,3.96
2024-04-09T04:34:08.676Z,2.81
2024-04-09T04:35:08.680Z,3.93
2024-04-09T04:36:08.794Z,4.35
2024-04-09T04:37:08.830Z,4.70
2024-04-09T04:38:08.957Z,4.09
2024-04-09T04:39:09.019Z,4.30
2024-04-09T04:40:09.063Z,4.15
2024-04-09T04:41:09.108Z,3.51
2024-04-09T04:42:09.195Z,4.25
2024-04-09T04:43:16.658Z,3.54
2024-04-09T04:44:16.684Z,3.21
2024-04-09T04:45:16.765Z,3.35
2024-04-09T04:46:16.752Z,3.93
2024-04-09T04:47:16.683Z,3.46
2024-04-09T04:48:16.816Z,3.45
2024-04-09T04:49:16.873Z,4.24
2024-04-09T04:50:16.648Z,3.02
2024-04-09T04:51:16.699Z,4.03
2024-04-09T04:52:16.702Z,3.51
2024-04-09T04:53:16.707Z,3.76
2024-04-09T04:54:16.742Z,3.43
2024-04-09T04:55:16.701Z,3.43
2024-04-09T04:56:16.698Z,3.56
2024-04-09T04:57:16.780Z,3.50
2024-04-09T04:58:16.731Z,2.81
2024-04-09T04:59:16.742Z,3.24
2024-04-09T05:01:52.838Z,2.92
2024-04-09T05:02:30.004Z,2.88
2024-04-09T05:03:30.025Z,2.80
2024-04-09T05:04:30.114Z,2.83
2024-04-09T05:05:29.931Z,3.59
2024-04-09T05:06:29.915Z,3.05
2024-04-09T05:07:30.306Z,3.12
2024-04-09T05:08:29.818Z,2.65
2024-04-09T05:09:29.875Z,3.02
2024-04-09T05:10:29.814Z,3.53
2024-04-09T05:11:29.790Z,3.15
2024-04-09T05:12:29.842Z,3.48
2024-04-09T05:13:29.816Z,3.33
2024-04-09T05:14:29.746Z,3.26
2024-04-09T05:15:31.795Z,2.95
2024-04-09T05:16:29.798Z,3.32
2024-04-09T05:17:30.073Z,3.25
2024-04-09T05:18:30.031Z,3.44
2024-04-09T05:19:29.996Z,3.83
2024-04-09T05:20:29.952Z,3.36
2024-04-09T05:21:30.204Z,2.88
2024-04-09T05:22:30.030Z,3.16
2024-04-09T05:23:29.933Z,3.36
2024-04-09T05:24:29.998Z,3.06
2024-04-09T05:25:29.963Z,3.69
2024-04-09T05:26:30.080Z,3.16
2024-04-09T05:27:31.088Z,2.90
2024-04-09T05:28:30.261Z,3.15
2024-04-09T05:29:30.171Z,3.64
2024-04-09T05:30:30.565Z,3.46
2024-04-09T05:31:30.324Z,3.55
2024-04-09T05:32:30.534Z,3.67
2024-04-09T05:33:32.098Z,3.68
2024-04-09T05:34:30.510Z,4.05
2024-04-09T05:35:30.326Z,3.73
2024-04-09T05:36:30.320Z,3.72
2024-04-09T05:37:30.661Z,4.15
2024-04-09T05:38:30.466Z,3.61
2024-04-09T05:39:30.720Z,3.16
2024-04-09T05:40:30.355Z,3.08
2024-04-09T05:41:30.691Z,3.32
2024-04-09T05:42:30.959Z,3.21
2024-04-09T05:43:30.408Z,3.03
2024-04-09T05:44:31.300Z,3.35
2024-04-09T05:46:53.150Z,3.66
2024-04-09T05:47:30.903Z,3.49
2024-04-09T05:48:30.529Z,3.89
2024-04-09T05:49:30.481Z,3.76
2024-04-09T05:50:30.419Z,3.30
2024-04-09T05:51:30.467Z,3.69
2024-04-09T05:52:30.443Z,3.62
2024-04-09T05:53:30.371Z,3.35
2024-04-09T05:54:30.412Z,3.47
2024-04-09T05:55:30.363Z,2.97
2024-04-09T05:57:25.635Z,4.45
2024-04-09T05:58:25.594Z,4.16
2024-04-09T05:59:25.549Z,3.21
2024-04-09T06:00:25.714Z,3.77
2024-04-09T06:01:25.620Z,3.35
2024-04-09T06:02:25.554Z,3.89
2024-04-09T06:03:25.678Z,2.85
2024-04-09T06:04:25.728Z,3.71
2024-04-09T06:05:25.484Z,3.43
2024-04-09T06:06:25.403Z,3.65
2024-04-09T06:07:25.233Z,5.69
2024-04-09T06:08:25.226Z,5.47
2024-04-09T06:09:25.252Z,5.07
2024-04-09T06:10:25.152Z,5.35
2024-04-09T06:11:25.062Z,5.79
2024-04-09T06:12:25.150Z,5.41
2024-04-09T06:13:26.712Z,5.67
2024-04-09T06:14:24.985Z,5.12
2024-04-09T06:15:25.035Z,5.50
2024-04-09T06:16:24.925Z,4.82
2024-04-09T06:17:25.146Z,6.45
2024-04-09T06:18:26.287Z,5.73
2024-04-09T06:19:25.029Z,5.49
2024-04-09T06:20:24.763Z,5.82
2024-04-09T06:21:24.816Z,6.18
2024-04-09T06:22:24.728Z,6.08
2024-04-09T06:23:25.714Z,6.20
2024-04-09T06:24:24.790Z,7.50
2024-04-09T06:25:24.838Z,7.74
2024-04-09T06:26:24.849Z,7.98
2024-04-09T06:27:24.807Z,7.51
2024-04-09T06:28:25.265Z,6.73
2024-04-09T06:29:24.916Z,7.76
2024-04-09T06:30:24.918Z,6.59
2024-04-09T06:31:25.082Z,5.98
2024-04-09T06:32:25.163Z,6.47
2024-04-09T06:33:25.224Z,7.33
2024-04-09T06:34:25.237Z,6.48
2024-04-09T06:35:24.900Z,6.23
2024-04-09T06:36:27.253Z,5.62
2024-04-09T06:37:24.976Z,6.11
2024-04-09T06:38:25.272Z,6.79
2024-04-09T06:39:26.253Z,6.83
2024-04-09T06:40:24.809Z,6.69
2024-04-09T06:41:24.901Z,6.36
2024-04-09T06:42:25.111Z,6.25
2024-04-09T06:43:25.719Z,6.83
2024-04-09T06:44:24.953Z,6.51
2024-04-09T06:45:24.883Z,7.88
2024-04-09T06:46:25.332Z,16.82
2024-04-09T06:47:24.986Z,26.86
2024-04-09T06:48:25.068Z,14.49
2024-04-09T06:49:24.999Z,10.86
2024-04-09T06:50:24.767Z,9.39
2024-04-09T06:51:24.738Z,7.02
2024-04-09T06:52:24.751Z,7.99
2024-04-09T06:53:25.193Z,6.81
2024-04-09T06:54:24.777Z,5.90
2024-04-09T06:55:24.679Z,5.85
2024-04-09T06:56:24.681Z,6.48
2024-04-09T06:57:24.666Z,6.43
2024-04-09T06:58:24.807Z,5.81
2024-04-09T06:59:24.604Z,5.96
2024-04-09T07:00:24.563Z,6.50
2024-04-09T07:01:24.726Z,5.92
2024-04-09T07:02:25.850Z,6.16
2024-04-09T07:03:24.806Z,7.05
2024-04-09T07:04:24.693Z,6.70
2024-04-09T07:05:24.588Z,5.78
2024-04-09T07:06:24.629Z,6.59
2024-04-09T07:07:25.043Z,6.82
2024-04-09T07:08:24.584Z,8.19
2024-04-09T07:09:24.626Z,7.65
2024-04-09T07:10:24.552Z,7.65
2024-04-09T07:11:24.638Z,7.85
2024-04-09T07:12:24.635Z,8.31
2024-04-09T07:13:28.553Z,9.83
2024-04-09T07:14:25.571Z,8.12
2024-04-09T07:15:24.665Z,7.73
2024-04-09T07:16:24.569Z,7.04
2024-04-09T07:17:24.826Z,6.36
2024-04-09T07:18:24.661Z,5.26
2024-04-09T07:19:24.587Z,5.52
2024-04-09T07:20:24.647Z,5.63
2024-04-09T07:21:24.854Z,5.73
2024-04-09T07:22:24.673Z,5.58
2024-04-09T07:23:24.771Z,5.97
2024-04-09T07:24:24.645Z,6.33
2024-04-09T07:25:24.594Z,6.39
2024-04-09T07:26:24.612Z,6.09
2024-04-09T07:27:24.646Z,5.64
2024-04-09T07:28:24.813Z,6.72
2024-04-09T07:29:24.625Z,5.94
2024-04-09T07:30:24.749Z,5.63
2024-04-09T07:31:24.765Z,6.06
2024-04-09T07:32:24.647Z,6.56
2024-04-09T07:33:24.839Z,5.28
2024-04-09T07:34:24.661Z,5.53
2024-04-09T07:35:24.694Z,5.69
2024-04-09T07:36:24.893Z,6.16
2024-04-09T07:37:24.677Z,4.82
2024-04-09T07:38:24.704Z,4.83
2024-04-09T07:39:24.746Z,6.08
2024-04-09T07:40:24.699Z,5.56
2024-04-09T07:41:24.893Z,5.16
2024-04-09T07:42:24.842Z,6.51
2024-04-09T07:43:26.175Z,5.78
2024-04-09T07:44:24.935Z,6.04
2024-04-09T07:45:24.875Z,5.94
2024-04-09T07:46:24.851Z,5.01
2024-04-09T07:47:24.975Z,5.40
2024-04-09T07:48:25.228Z,5.92
2024-04-09T07:49:24.946Z,6.38
2024-04-09T07:50:24.881Z,5.90
2024-04-09T07:51:24.927Z,6.26
2024-04-09T07:52:24.972Z,6.23
2024-04-09T07:53:25.222Z,5.85
2024-04-09T07:54:25.002Z,5.92
2024-04-09T07:55:24.941Z,6.37
2024-04-09T07:56:25.009Z,5.91
2024-04-09T07:57:25.653Z,5.51
2024-04-09T07:58:25.310Z,5.20
2024-04-09T07:59:25.048Z,5.81
2024-04-09T08:00:25.082Z,6.75
2024-04-09T08:01:25.107Z,7.62
2024-04-09T08:02:25.752Z,7.22
2024-04-09T08:03:25.174Z,7.62
2024-04-09T08:04:25.330Z,6.11
2024-04-09T08:05:25.301Z,7.55
2024-04-09T08:06:25.156Z,7.95
2024-04-09T08:07:25.538Z,8.17
2024-04-09T08:08:25.174Z,7.71
2024-04-09T08:09:25.164Z,7.61
2024-04-09T08:10:25.106Z,6.28
2024-04-09T08:11:25.093Z,6.40
2024-04-09T08:12:25.116Z,6.24
2024-04-09T08:13:25.124Z,6.85
2024-04-09T08:14:25.086Z,6.98
2024-04-09T08:15:25.166Z,6.52
2024-04-09T08:16:24.935Z,6.58
2024-04-09T08:17:24.956Z,6.09
2024-04-09T08:18:25.107Z,5.81
2024-04-09T08:19:24.935Z,5.95
2024-04-09T08:20:24.813Z,5.34
2024-04-09T08:21:24.759Z,5.81
2024-04-09T08:22:24.675Z,5.46
2024-04-09T08:23:24.734Z,6.15
2024-04-09T08:24:24.710Z,6.57
2024-04-09T08:25:24.583Z,6.11
2024-04-09T08:26:24.540Z,6.91
2024-04-09T08:27:24.749Z,6.03
2024-04-09T08:28:24.601Z,5.83
2024-04-09T08:29:24.566Z,5.87
2024-04-09T08:30:24.684Z,5.57
2024-04-09T08:31:24.579Z,5.35
2024-04-09T08:32:24.674Z,6.61
2024-04-09T08:33:24.772Z,5.13
2024-04-09T08:34:24.947Z,7.39
2024-04-09T08:35:24.678Z,7.31
2024-04-09T08:36:24.738Z,7.35
2024-04-09T08:37:24.784Z,7.18
2024-04-09T08:38:24.674Z,7.54
2024-04-09T08:39:24.666Z,6.69
2024-04-09T08:40:25.054Z,6.92
2024-04-09T08:41:24.638Z,5.61
2024-04-09T08:42:24.652Z,5.68
2024-04-09T08:43:24.862Z,5.98
2024-04-09T08:44:24.596Z,4.96
2024-04-09T08:45:24.629Z,5.79
2024-04-09T08:46:24.482Z,5.23
2024-04-09T08:47:24.492Z,6.33
2024-04-09T08:48:25.051Z,5.52
2024-04-09T08:49:24.681Z,4.51
2024-04-09T08:50:25.887Z,4.34
2024-04-09T08:51:24.447Z,5.77
2024-04-09T08:52:24.351Z,4.27
2024-04-09T08:53:24.312Z,4.48
2024-04-09T08:54:24.175Z,4.88
2024-04-09T08:55:24.190Z,4.21
2024-04-09T08:56:24.217Z,4.68
2024-04-09T08:57:24.178Z,4.08
2024-04-09T08:58:24.107Z,4.25
2024-04-09T08:59:24.233Z,3.93
2024-04-09T09:00:24.045Z,3.71
2024-04-09T09:01:24.118Z,3.44
2024-04-09T09:02:24.596Z,4.08
2024-04-09T09:03:24.139Z,3.72
2024-04-09T09:04:24.359Z,3.62
2024-04-09T09:05:24.017Z,3.45
2024-04-09T09:06:23.934Z,5.03
2024-04-09T09:07:23.849Z,5.60
2024-04-09T09:08:23.873Z,3.03
2024-04-09T09:09:23.973Z,3.38
2024-04-09T09:10:23.742Z,3.44
2024-04-09T09:11:23.811Z,3.19
2024-04-09T09:12:23.673Z,3.85
2024-04-09T09:13:23.611Z,4.50
2024-04-09T09:14:23.611Z,3.97
2024-04-09T09:15:23.723Z,3.78
2024-04-09T09:16:23.534Z,4.05
2024-04-09T09:17:24.220Z,3.36
2024-04-09T09:18:23.408Z,3.72
2024-04-09T09:19:23.811Z,4.02
2024-04-09T09:20:23.274Z,3.79
2024-04-09T09:21:23.179Z,4.23
2024-04-09T09:22:23.114Z,3.02
2024-04-09T09:23:23.062Z,3.93
2024-04-09T09:24:23.251Z,4.34
2024-04-09T09:25:23.065Z,3.60
2024-04-09T09:26:23.025Z,4.15
2024-04-09T09:27:23.107Z,3.68
2024-04-09T09:28:23.074Z,5.50
2024-04-09T09:29:24.831Z,4.16
2024-04-09T09:30:22.971Z,5.09
2024-04-09T09:31:23.064Z,4.92
2024-04-09T09:32:23.007Z,4.83
2024-04-09T09:33:23.941Z,4.82
2024-04-09T09:34:22.783Z,4.32
2024-04-09T09:35:22.786Z,3.12
2024-04-09T09:36:22.771Z,4.38
2024-04-09T09:37:22.703Z,5.03
2024-04-09T09:38:22.757Z,4.03
2024-04-09T09:39:22.922Z,5.13
2024-04-09T09:40:22.593Z,4.67
2024-04-09T09:41:22.621Z,4.07
2024-04-09T09:42:22.601Z,3.77
2024-04-09T09:43:22.541Z,3.63
2024-04-09T09:44:22.739Z,3.42
2024-04-09T09:45:25.382Z,3.98
2024-04-09T09:46:22.664Z,4.24
2024-04-09T09:47:22.306Z,4.41
2024-04-09T09:48:22.421Z,4.24
2024-04-09T09:49:23.028Z,3.92
2024-04-09T09:50:22.025Z,4.06
2024-04-09T09:51:21.895Z,3.87
2024-04-09T09:52:21.741Z,3.65
2024-04-09T09:53:21.989Z,4.14
2024-04-09T09:54:21.757Z,3.78
2024-04-09T09:55:21.589Z,3.75
2024-04-09T09:56:21.772Z,4.33
2024-04-09T09:57:21.432Z,5.45
2024-04-09T09:58:21.380Z,3.27
2024-04-09T09:59:21.283Z,3.95
2024-04-09T10:00:21.228Z,3.34
2024-04-09T10:01:21.270Z,4.10
2024-04-09T10:02:20.942Z,3.46
2024-04-09T10:03:20.980Z,3.46
2024-04-09T10:04:21.092Z,3.99
2024-04-09T10:05:20.851Z,3.27
2024-04-09T10:06:20.627Z,3.44
2024-04-09T10:07:20.506Z,3.65
2024-04-09T10:08:20.412Z,3.77
2024-04-09T10:09:20.800Z,3.77
2024-04-09T10:10:20.214Z,3.57
2024-04-09T10:11:20.181Z,4.38
2024-04-09T10:12:20.150Z,3.22
2024-04-09T10:13:20.071Z,2.98
2024-04-09T10:14:19.946Z,3.57
2024-04-09T10:15:19.886Z,2.77
2024-04-09T10:16:19.865Z,3.64
2024-04-09T10:17:20.386Z,4.30
2024-04-09T10:18:19.806Z,3.74
2024-04-09T10:19:19.504Z,3.62
2024-04-09T10:20:19.366Z,4.17
2024-04-09T10:21:19.431Z,3.82
2024-04-09T10:22:19.181Z,4.05
2024-04-09T10:23:19.148Z,3.61
2024-04-09T10:24:19.150Z,3.51
2024-04-09T10:25:18.981Z,3.76
2024-04-09T10:26:18.914Z,4.31
2024-04-09T10:27:19.145Z,3.67
2024-04-09T10:28:18.930Z,3.66
2024-04-09T10:29:18.723Z,3.13
2024-04-09T10:30:18.756Z,4.32
2024-04-09T10:31:18.612Z,3.26
2024-04-09T10:32:18.526Z,3.29
2024-04-09T10:33:18.656Z,3.60
2024-04-09T10:34:18.625Z,4.17
2024-04-09T10:35:18.444Z,3.98
2024-04-09T10:36:18.527Z,4.98
2024-04-09T10:37:18.244Z,4.33
2024-04-09T10:38:18.205Z,4.08
2024-04-09T10:39:18.391Z,4.78
2024-04-09T10:40:18.178Z,4.17
2024-04-09T10:41:18.080Z,3.81
2024-04-09T10:42:18.930Z,4.30
2024-04-09T10:43:18.004Z,3.68
2024-04-09T10:44:18.291Z,3.92
2024-04-09T10:45:18.009Z,3.97
2024-04-09T10:46:18.063Z,3.51
2024-04-09T10:47:17.898Z,4.14
2024-04-09T10:48:17.797Z,4.66
2024-04-09T10:49:17.824Z,4.68
2024-04-09T10:50:17.637Z,3.82
2024-04-09T10:51:19.911Z,4.53
2024-04-09T10:52:19.250Z,4.25
2024-04-09T10:53:17.243Z,5.01
2024-04-09T10:54:17.351Z,5.38
2024-04-09T10:55:17.006Z,5.36
2024-04-09T10:56:16.843Z,4.44
2024-04-09T10:57:19.527Z,4.26
2024-04-09T10:58:16.664Z,3.76
2024-04-09T10:59:16.528Z,5.38
2024-04-09T11:00:16.461Z,4.61
2024-04-09T11:01:17.625Z,4.09
2024-04-09T11:02:16.302Z,4.54
2024-04-09T11:03:16.865Z,4.42
2024-04-09T11:04:16.462Z,3.90
2024-04-09T11:05:15.934Z,4.38
2024-04-09T11:06:16.891Z,4.27
2024-04-09T11:07:15.758Z,4.55
2024-04-09T11:08:15.551Z,4.62
2024-04-09T11:09:15.564Z,4.42
2024-04-09T11:10:15.483Z,4.68
2024-04-09T11:11:15.364Z,5.11
2024-04-09T11:12:15.281Z,4.00
2024-04-09T11:13:15.026Z,4.18
2024-04-09T11:14:15.315Z,3.82
2024-04-09T11:15:14.870Z,4.34
2024-04-09T11:16:14.700Z,5.10
2024-04-09T11:17:14.619Z,4.82
2024-04-09T11:18:14.672Z,5.14
2024-04-09T11:19:14.601Z,4.00
2024-04-09T11:20:14.230Z,5.19
2024-04-09T11:21:14.110Z,4.48
2024-04-09T11:22:13.933Z,4.02
2024-04-09T11:23:13.900Z,4.69
2024-04-09T11:24:13.915Z,3.73
2024-04-09T11:25:13.695Z,5.05
2024-04-09T11:26:13.464Z,3.81
2024-04-09T11:27:13.396Z,3.08
2024-04-09T11:28:13.254Z,3.93
2024-04-09T11:29:13.377Z,4.50
2024-04-09T11:30:12.991Z,3.18
2024-04-09T11:31:14.259Z,2.57
2024-04-09T11:32:13.577Z,4.09
2024-04-09T11:33:12.751Z,4.34
2024-04-09T11:34:12.854Z,5.30
2024-04-09T11:35:12.332Z,3.31
2024-04-09T11:36:17.500Z,3.60
2024-04-09T11:37:13.172Z,3.55
2024-04-09T11:38:12.004Z,3.70
2024-04-09T11:39:11.933Z,2.86
2024-04-09T11:40:11.744Z,3.06
2024-04-09T11:41:11.646Z,3.44
2024-04-09T11:42:11.599Z,3.26
2024-04-09T11:43:14.413Z,3.46
2024-04-09T11:44:11.235Z,3.50
2024-04-09T11:45:11.199Z,3.73
2024-04-09T11:46:11.067Z,3.80
2024-04-09T11:47:10.915Z,3.43
2024-04-09T11:48:11.018Z,3.64
2024-04-09T11:49:10.736Z,4.77
2024-04-09T11:50:10.611Z,2.98
2024-04-09T11:51:11.288Z,2.62
2024-04-09T11:52:10.350Z,2.89
2024-04-09T11:53:10.621Z,3.02
2024-04-09T11:54:10.124Z,3.37
2024-04-09T11:55:10.934Z,2.97
2024-04-09T11:56:09.915Z,3.11
2024-04-09T11:57:09.880Z,3.39
2024-04-09T11:58:09.717Z,3.46
2024-04-09T11:59:09.614Z,2.99
2024-04-09T12:00:09.724Z,3.61
2024-04-09T12:01:09.496Z,4.23
2024-04-09T12:02:09.238Z,3.37
2024-04-09T12:03:09.268Z,3.91
2024-04-09T12:04:09.200Z,4.01
2024-04-09T12:05:08.972Z,4.68
2024-04-09T12:06:08.877Z,4.21
2024-04-09T12:07:08.634Z,3.33
2024-04-09T12:08:08.535Z,3.92
2024-04-09T12:09:08.491Z,3.88
2024-04-09T12:10:08.349Z,4.40
2024-04-09T12:11:08.292Z,3.75
2024-04-09T12:12:08.695Z,4.97
2024-04-09T12:13:07.948Z,3.58
2024-04-09T12:14:07.878Z,3.43
2024-04-09T12:15:07.995Z,4.50
2024-04-09T12:16:07.675Z,4.36
2024-04-09T12:17:07.523Z,3.60
2024-04-09T12:18:07.604Z,4.47
2024-04-09T12:19:07.317Z,4.01
2024-04-09T12:20:07.141Z,3.69
2024-04-09T12:21:07.021Z,3.95
2024-04-09T12:22:06.891Z,4.30
2024-04-09T12:23:06.740Z,3.04
2024-04-09T12:24:06.700Z,3.47
2024-04-09T12:25:06.709Z,3.32
2024-04-09T12:26:06.516Z,3.61
2024-04-09T12:27:06.493Z,3.67
2024-04-09T12:28:06.312Z,3.32
2024-04-09T12:29:06.307Z,3.98
2024-04-09T12:30:06.253Z,3.35
2024-04-09T12:31:06.184Z,3.76
2024-04-09T12:32:06.023Z,3.01
2024-04-09T12:33:06.132Z,3.95
2024-04-09T12:35:05.898Z,3.76
2024-04-09T12:36:05.734Z,4.28
2024-04-09T12:37:05.626Z,3.46
2024-04-09T12:38:05.484Z,3.27
2024-04-09T12:39:05.431Z,3.45
2024-04-09T12:40:05.376Z,3.06
2024-04-09T12:41:05.223Z,3.58
2024-04-09T12:42:05.139Z,3.74
2024-04-09T12:43:05.036Z,3.39
2024-04-09T12:44:04.995Z,3.37
2024-04-09T12:45:05.090Z,3.74
2024-04-09T12:46:04.993Z,5.00
2024-04-09T12:47:05.061Z,4.71
2024-04-09T12:48:04.909Z,4.92
2024-04-09T12:49:16.847Z,3.26
2024-04-09T12:50:05.688Z,4.33
2024-04-09T12:51:04.443Z,3.52
2024-04-09T12:52:04.288Z,3.84
2024-04-09T12:53:04.193Z,3.92
2024-04-09T12:54:04.097Z,3.75
2024-04-09T12:55:03.942Z,3.42
2024-04-09T12:56:03.852Z,4.39
2024-04-09T12:57:03.757Z,3.65
2024-04-09T12:58:03.596Z,4.04
2024-04-09T12:59:03.470Z,3.07
2024-04-09T13:01:08.499Z,4.01
2024-04-09T13:02:04.238Z,4.31
2024-04-09T13:03:03.159Z,3.94
2024-04-09T13:04:03.151Z,4.25
2024-04-09T13:05:03.400Z,4.45
2024-04-09T13:06:02.909Z,3.93
2024-04-09T13:07:02.645Z,3.88
2024-04-09T13:08:02.400Z,4.54
2024-04-09T13:09:02.337Z,4.09
2024-04-09T13:10:03.565Z,4.45
2024-04-09T13:11:02.103Z,4.99
2024-04-09T13:12:02.054Z,5.04
2024-04-09T13:13:01.800Z,4.54
2024-04-09T13:14:01.630Z,4.14
2024-04-09T13:16:49.381Z,4.13
2024-04-09T13:17:04.394Z,4.08
2024-04-09T13:18:02.381Z,3.96
2024-04-09T13:19:01.163Z,6.14
2024-04-09T13:20:00.823Z,3.61
2024-04-09T13:21:00.738Z,4.43
2024-04-09T13:22:00.570Z,4.04
2024-04-09T13:23:00.487Z,3.33
2024-04-09T13:24:00.303Z,4.93
2024-04-09T13:25:00.280Z,4.03